createdAt,value
2022-08-01T00:02:00.871Z,20.07
2022-08-01T00:04:27.643Z,20.60
2022-08-01T00:06:54.180Z,21.30
2022-08-01T00:09:24.097Z,21.00
2022-08-01T00:11:59.711Z,22.60
2022-08-01T00:14:32.685Z,19.40
2022-08-01T00:17:05.126Z,19.97
2022-08-01T00:19:33.948Z,21.47
2022-08-01T00:22:00.675Z,21.47
2022-08-01T00:24:27.499Z,22.03
2022-08-01T00:26:54.081Z,22.63
2022-08-01T00:30:04.699Z,20.90
2022-08-01T00:32:07.878Z,22.00
2022-08-01T00:34:34.977Z,22.50
2022-08-01T00:37:01.586Z,23.10
2022-08-01T00:39:28.118Z,22.60
2022-08-01T00:41:59.410Z,22.53
2022-08-01T00:44:27.373Z,23.90
2022-08-01T00:46:54.137Z,23.53
2022-08-01T00:49:20.823Z,26.30
2022-08-01T00:51:47.471Z,26.57
2022-08-01T00:54:16.655Z,25.93
2022-08-01T00:56:44.028Z,26.83
2022-08-01T00:59:12.534Z,26.03
2022-08-01T01:01:46.424Z,27.50
2022-08-01T01:04:13.360Z,29.07
2022-08-01T01:06:54.545Z,26.90
2022-08-01T01:09:53.775Z,26.07
2022-08-01T01:12:30.526Z,27.37
2022-08-01T01:15:09.651Z,28.60
2022-08-01T01:17:51.532Z,28.87
2022-08-01T01:20:19.908Z,27.33
2022-08-01T01:23:03.050Z,30.43
2022-08-01T01:25:38.622Z,28.23
2022-08-01T01:28:13.985Z,26.77
2022-08-01T01:30:42.778Z,27.13
2022-08-01T01:33:11.582Z,26.97
2022-08-01T01:35:44.231Z,29.00
2022-08-01T01:38:19.147Z,29.73
2022-08-01T01:40:47.174Z,27.43
2022-08-01T01:43:16.069Z,29.13
2022-08-01T01:45:43.472Z,28.90
2022-08-01T01:48:11.611Z,28.50
2022-08-01T01:50:38.594Z,29.77
2022-08-01T01:53:07.283Z,27.30
2022-08-01T01:55:49.827Z,25.93
2022-08-01T01:58:17.363Z,29.03
2022-08-01T02:00:45.552Z,29.07
2022-08-01T02:03:13.521Z,27.40
2022-08-01T02:05:40.886Z,27.93
2022-08-01T02:08:09.143Z,26.93
2022-08-01T02:10:36.198Z,26.67
2022-08-01T02:13:04.996Z,26.73
2022-08-01T02:15:32.618Z,25.10
2022-08-01T02:17:59.602Z,25.80
2022-08-01T02:20:28.324Z,27.77
2022-08-01T02:22:58.995Z,24.90
2022-08-01T02:25:33.642Z,27.63
2022-08-01T02:28:02.659Z,26.73
2022-08-01T02:30:33.659Z,29.40
2022-08-01T02:33:04.522Z,28.20
2022-08-01T02:35:33.591Z,29.43
2022-08-01T02:38:01.700Z,30.23
2022-08-01T02:40:29.659Z,30.37
2022-08-01T02:42:57.278Z,29.07
2022-08-01T02:45:26.409Z,28.40
2022-08-01T02:47:56.915Z,30.30
2022-08-01T02:50:25.000Z,29.97
2022-08-01T02:52:52.577Z,30.87
2022-08-01T02:55:20.510Z,25.57
2022-08-01T02:57:52.207Z,18.87
2022-08-01T03:00:25.011Z,19.90
2022-08-01T03:02:52.660Z,19.17
2022-08-01T03:05:19.517Z,18.20
2022-08-01T03:07:48.576Z,16.27
2022-08-01T03:10:15.796Z,19.20
2022-08-01T03:12:43.103Z,18.93
2022-08-01T03:15:13.556Z,15.17
2022-08-01T03:17:42.053Z,16.70
2022-08-01T03:20:09.730Z,17.30
2022-08-01T03:22:37.860Z,16.70
2022-08-01T03:25:05.466Z,15.80
2022-08-01T03:27:32.164Z,17.60
2022-08-01T03:29:59.336Z,17.63
2022-08-01T03:32:26.947Z,15.43
2022-08-01T03:34:53.615Z,17.53
2022-08-01T03:37:25.953Z,15.27
2022-08-01T03:39:59.932Z,14.60
2022-08-01T03:42:35.252Z,15.17
2022-08-01T03:45:13.279Z,14.60
2022-08-01T03:47:44.951Z,15.70
2022-08-01T03:50:13.217Z,18.30
2022-08-01T03:52:40.792Z,15.97
2022-08-01T03:55:08.449Z,15.37
2022-08-01T03:57:36.779Z,14.80
2022-08-01T04:00:10.196Z,15.10
2022-08-01T04:02:37.547Z,17.43
2022-08-01T04:05:04.762Z,16.73
2022-08-01T04:07:33.108Z,17.73
2022-08-01T04:09:59.882Z,17.13
2022-08-01T04:12:26.411Z,16.93
2022-08-01T04:14:52.993Z,17.73
2022-08-01T04:17:19.862Z,17.57
2022-08-01T04:19:46.845Z,17.57
2022-08-01T04:22:16.496Z,18.63
2022-08-01T04:24:54.542Z,18.90
2022-08-01T04:27:50.307Z,16.40
2022-08-01T04:30:24.251Z,16.23
2022-08-01T04:32:51.624Z,16.10
2022-08-01T04:35:23.062Z,15.13
2022-08-01T04:38:06.397Z,14.57
2022-08-01T04:40:33.523Z,14.93
2022-08-01T04:43:01.280Z,19.97
2022-08-01T04:45:28.083Z,19.03
2022-08-01T04:47:55.365Z,18.20
2022-08-01T04:50:25.403Z,18.40
2022-08-01T04:52:52.556Z,16.47
2022-08-01T04:55:19.427Z,16.00
2022-08-01T04:57:47.526Z,15.00
2022-08-01T05:00:15.049Z,15.47
2022-08-01T05:02:41.598Z,15.43
2022-08-01T05:05:08.665Z,14.53
2022-08-01T05:07:45.087Z,16.23
2022-08-01T05:10:12.224Z,17.33
2022-08-01T05:12:38.793Z,15.63
2022-08-01T05:15:10.602Z,13.10
2022-08-01T05:17:43.181Z,15.20
2022-08-01T05:20:10.850Z,12.73
2022-08-01T05:22:37.643Z,12.60
2022-08-01T05:25:05.913Z,19.27
2022-08-01T05:27:32.948Z,13.90
2022-08-01T05:30:00.458Z,14.37
2022-08-01T05:32:27.034Z,14.17
2022-08-01T05:34:53.698Z,13.97
2022-08-01T05:37:20.484Z,11.67
2022-08-01T05:39:47.033Z,13.13
2022-08-01T05:42:13.541Z,13.23
2022-08-01T05:44:40.117Z,13.20
2022-08-01T05:47:06.840Z,12.30
2022-08-01T05:49:33.438Z,12.10
2022-08-01T05:52:01.994Z,12.77
2022-08-01T05:54:29.055Z,13.10
2022-08-01T05:57:00.440Z,13.27
2022-08-01T05:59:27.554Z,11.43
2022-08-01T06:01:54.211Z,13.40
2022-08-01T06:04:20.803Z,12.50
2022-08-01T06:06:48.071Z,12.17
2022-08-01T06:09:14.890Z,13.23
2022-08-01T06:11:41.776Z,13.60
2022-08-01T06:14:08.336Z,12.07
2022-08-01T06:16:34.936Z,12.63
2022-08-01T06:19:01.468Z,12.83
2022-08-01T06:21:28.058Z,13.43
2022-08-01T06:23:54.485Z,12.40
2022-08-01T06:26:21.330Z,10.73
2022-08-01T06:28:47.900Z,11.60
2022-08-01T06:31:15.713Z,14.47
2022-08-01T06:33:42.311Z,11.37
2022-08-01T06:36:10.131Z,11.27
2022-08-01T06:38:36.775Z,10.83
2022-08-01T06:41:03.417Z,13.40
2022-08-01T06:43:30.062Z,10.43
2022-08-01T06:45:56.604Z,9.77
2022-08-01T06:48:23.774Z,11.27
2022-08-01T06:51:08.587Z,8.17
2022-08-01T06:53:36.782Z,8.50
2022-08-01T06:56:04.555Z,10.07
2022-08-01T06:58:31.709Z,8.10
2022-08-01T07:00:58.629Z,8.97
2022-08-01T07:03:27.857Z,9.10
2022-08-01T07:06:13.592Z,8.40
2022-08-01T07:08:41.792Z,8.50
2022-08-01T07:11:08.709Z,8.33
2022-08-01T07:13:43.984Z,10.40
2022-08-01T07:16:10.919Z,9.40
2022-08-01T07:18:37.476Z,9.00
2022-08-01T07:21:06.932Z,9.13
2022-08-01T07:23:45.830Z,8.07
2022-08-01T07:26:14.138Z,7.47
2022-08-01T07:28:43.907Z,8.37
2022-08-01T07:31:10.912Z,7.27
2022-08-01T07:33:48.579Z,10.90
2022-08-01T07:36:16.992Z,9.97
2022-08-01T07:38:43.690Z,8.83
2022-08-01T07:41:10.419Z,9.83
2022-08-01T07:43:37.142Z,9.60
2022-08-01T07:46:04.739Z,9.60
2022-08-01T07:48:31.507Z,9.20
2022-08-01T07:50:58.363Z,9.70
2022-08-01T07:53:24.956Z,8.73
2022-08-01T07:55:51.681Z,9.10
2022-08-01T07:58:18.372Z,8.77
2022-08-01T08:00:45.120Z,7.70
2022-08-01T08:03:11.723Z,7.50
2022-08-01T08:05:58.611Z,7.10
2022-08-01T08:08:25.177Z,6.20
2022-08-01T08:10:51.744Z,6.80
2022-08-01T08:13:18.375Z,5.97
2022-08-01T08:15:48.279Z,6.20
2022-08-01T08:18:15.799Z,6.10
2022-08-01T08:20:42.500Z,4.77
2022-08-01T08:23:43.101Z,5.60
2022-08-01T08:26:11.696Z,5.80
2022-08-01T08:28:38.346Z,5.40
2022-08-01T08:31:07.861Z,6.93
2022-08-01T08:33:52.442Z,6.53
2022-08-01T08:36:19.090Z,7.03
2022-08-01T08:38:45.606Z,10.30
2022-08-01T08:41:14.363Z,7.30
2022-08-01T08:43:42.511Z,7.53
2022-08-01T08:46:09.658Z,7.03
2022-08-01T08:48:36.339Z,7.13
2022-08-01T08:51:03.126Z,7.47
2022-08-01T08:53:34.746Z,8.73
2022-08-01T08:56:02.145Z,8.43
2022-08-01T08:58:31.870Z,7.23
2022-08-01T09:00:59.053Z,6.50
2022-08-01T09:03:26.011Z,5.47
2022-08-01T09:05:52.856Z,4.93
2022-08-01T09:08:19.494Z,4.33
2022-08-01T09:10:46.350Z,4.10
2022-08-01T09:13:14.541Z,2.70
2022-08-01T09:15:48.079Z,3.80
2022-08-01T09:18:35.043Z,2.17
2022-08-01T09:21:15.437Z,2.40
2022-08-01T09:23:53.658Z,2.10
2022-08-01T09:26:41.747Z,1.80
2022-08-01T09:29:10.341Z,2.93
2022-08-01T09:31:42.799Z,2.40
2022-08-01T09:34:15.612Z,2.30
2022-08-01T09:36:56.991Z,2.40
2022-08-01T09:39:31.715Z,2.23
2022-08-01T09:42:00.812Z,2.13
2022-08-01T09:44:44.099Z,2.30
2022-08-01T09:47:15.561Z,2.43
2022-08-01T09:49:49.786Z,2.10
2022-08-01T09:52:25.755Z,2.30
2022-08-01T09:54:57.965Z,2.17
2022-08-01T09:57:25.569Z,2.53
2022-08-01T09:59:59.119Z,2.67
2022-08-01T10:02:38.832Z,2.83
2022-08-01T10:05:08.961Z,2.53
2022-08-01T10:07:43.036Z,2.43
2022-08-01T10:10:16.083Z,2.60
2022-08-01T10:12:45.490Z,2.40
2022-08-01T10:15:18.077Z,2.63
2022-08-01T10:17:57.094Z,2.80
2022-08-01T10:20:32.124Z,3.63
2022-08-01T10:23:02.046Z,7.67
2022-08-01T10:25:42.487Z,5.83
2022-08-01T10:28:23.755Z,3.97
2022-08-01T10:30:52.037Z,2.60
2022-08-01T10:33:20.048Z,2.10
2022-08-01T10:36:08.466Z,1.70
2022-08-01T10:38:36.278Z,1.40
2022-08-01T10:41:06.287Z,2.03
2022-08-01T10:43:35.295Z,3.97
2022-08-01T10:46:03.519Z,2.60
2022-08-01T10:48:44.362Z,1.70
2022-08-01T10:51:18.542Z,1.60
2022-08-01T10:53:54.437Z,1.40
2022-08-01T10:56:27.116Z,1.60
2022-08-01T10:59:06.240Z,1.40
2022-08-01T11:01:34.230Z,1.27
2022-08-01T11:04:16.026Z,1.00
2022-08-01T11:07:05.073Z,1.20
2022-08-01T11:09:44.333Z,1.07
2022-08-01T11:12:24.405Z,1.00
2022-08-01T11:15:02.769Z,1.10
2022-08-01T11:17:42.509Z,1.30
2022-08-01T11:20:13.912Z,1.00
2022-08-01T11:23:16.668Z,1.20
2022-08-01T11:26:05.523Z,1.00
2022-08-01T11:28:40.591Z,4.53
2022-08-01T11:31:14.473Z,2.43
2022-08-01T11:33:45.832Z,1.10
2022-08-01T11:36:55.433Z,1.40
2022-08-01T11:39:13.109Z,1.10
2022-08-01T11:41:41.672Z,0.97
2022-08-01T11:44:15.184Z,0.90
2022-08-01T11:47:09.959Z,1.77
2022-08-01T11:49:48.921Z,1.20
2022-08-01T11:52:18.287Z,1.07
2022-08-01T11:54:46.343Z,1.10
2022-08-01T11:57:22.920Z,1.17
2022-08-01T12:00:03.547Z,0.83
2022-08-01T12:02:35.723Z,0.90
2022-08-01T12:05:08.240Z,1.20
2022-08-01T12:07:36.736Z,1.27
2022-08-01T12:10:17.453Z,1.13
2022-08-01T12:12:49.630Z,1.00
2022-08-01T12:15:17.010Z,1.00
2022-08-01T12:17:47.025Z,1.10
2022-08-01T12:20:36.827Z,2.23
2022-08-01T12:23:08.399Z,2.73
2022-08-01T12:25:36.337Z,1.30
2022-08-01T12:28:05.204Z,1.00
2022-08-01T12:30:36.014Z,1.73
2022-08-01T12:33:04.785Z,1.73
2022-08-01T12:35:32.408Z,1.70
2022-08-01T12:38:05.153Z,1.10
2022-08-01T12:40:33.939Z,1.37
2022-08-01T12:43:05.533Z,1.97
2022-08-01T12:45:38.164Z,1.00
2022-08-01T12:48:08.845Z,1.00
2022-08-01T12:50:39.071Z,1.03
2022-08-01T12:53:07.093Z,1.10
2022-08-01T12:55:34.807Z,1.40
2022-08-01T12:58:16.043Z,1.40
2022-08-01T13:00:45.390Z,1.00
2022-08-01T13:03:20.118Z,1.90
2022-08-01T13:05:46.627Z,1.63
2022-08-01T13:08:24.925Z,1.97
2022-08-01T13:10:54.823Z,1.60
2022-08-01T13:13:28.368Z,1.57
2022-08-01T13:16:05.276Z,1.60
2022-08-01T13:18:33.657Z,1.40
2022-08-01T13:21:52.625Z,1.50
2022-08-01T13:24:30.669Z,1.30
2022-08-01T13:27:04.101Z,1.83
2022-08-01T13:29:33.813Z,1.40
2022-08-01T13:32:12.991Z,1.47
2022-08-01T13:35:09.739Z,1.73
2022-08-01T13:37:39.034Z,1.40
2022-08-01T13:40:07.457Z,1.30
2022-08-01T13:42:34.835Z,1.50
2022-08-01T13:45:02.911Z,1.00
2022-08-01T13:47:31.291Z,1.60
2022-08-01T13:50:02.704Z,1.83
2022-08-01T13:52:30.080Z,1.30
2022-08-01T13:54:56.656Z,1.60
2022-08-01T13:57:23.245Z,2.30
2022-08-01T13:59:49.915Z,1.40
2022-08-01T14:02:16.462Z,1.93
2022-08-01T14:04:43.238Z,1.60
2022-08-01T14:07:14.660Z,1.50
2022-08-01T14:09:45.121Z,1.73
2022-08-01T14:12:28.105Z,1.53
2022-08-01T14:14:54.711Z,1.40
2022-08-01T14:17:21.263Z,1.97
2022-08-01T14:19:48.741Z,2.30
2022-08-01T14:22:15.335Z,1.90
2022-08-01T14:24:41.862Z,1.53
2022-08-01T14:27:08.467Z,1.70
2022-08-01T14:30:02.868Z,1.50
2022-08-01T14:32:24.427Z,2.83
2022-08-01T14:34:55.277Z,1.67
2022-08-01T14:37:21.820Z,6.57
2022-08-01T14:39:53.544Z,2.30
2022-08-01T14:42:21.318Z,2.60
2022-08-01T14:44:49.985Z,2.13
2022-08-01T14:47:22.116Z,2.37
2022-08-01T14:49:49.653Z,2.77
2022-08-01T14:52:16.244Z,4.93
2022-08-01T14:54:42.810Z,2.10
2022-08-01T14:57:09.563Z,2.60
2022-08-01T14:59:36.956Z,2.47
2022-08-01T15:02:04.026Z,2.17
2022-08-01T15:04:31.458Z,1.97
2022-08-01T15:06:58.089Z,2.17
2022-08-01T15:09:25.367Z,2.30
2022-08-01T15:11:51.913Z,2.10
2022-08-01T15:14:36.991Z,1.87
2022-08-01T15:17:03.743Z,2.33
2022-08-01T15:19:30.284Z,2.03
2022-08-01T15:21:56.935Z,1.83
2022-08-01T15:24:23.445Z,1.63
2022-08-01T15:26:49.991Z,2.60
2022-08-01T15:29:18.131Z,2.53
2022-08-01T15:31:45.157Z,2.20
2022-08-01T15:34:11.863Z,2.60
2022-08-01T15:36:41.867Z,3.63
2022-08-01T15:39:09.665Z,1.90
2022-08-01T15:41:36.302Z,2.50
2022-08-01T15:44:03.111Z,2.50
2022-08-01T15:46:29.692Z,2.40
2022-08-01T15:48:56.308Z,2.07
2022-08-01T15:51:23.435Z,2.00
2022-08-01T15:53:49.950Z,1.90
2022-08-01T15:56:16.705Z,3.37
2022-08-01T15:58:43.229Z,1.83
2022-08-01T16:01:09.781Z,2.50
2022-08-01T16:03:36.296Z,2.37
2022-08-01T16:06:02.887Z,2.70
2022-08-01T16:08:29.416Z,3.00
2022-08-01T16:10:56.188Z,3.63
2022-08-01T16:13:22.728Z,2.50
2022-08-01T16:15:49.259Z,3.60
2022-08-01T16:18:16.118Z,2.57
2022-08-01T16:20:45.724Z,3.20
2022-08-01T16:23:16.164Z,2.37
2022-08-01T16:25:44.619Z,2.90
2022-08-01T16:28:11.945Z,3.20
2022-08-01T16:30:48.759Z,3.57
2022-08-01T16:33:43.496Z,2.80
2022-08-01T16:36:16.680Z,3.20
2022-08-01T16:38:44.284Z,4.90
2022-08-01T16:41:20.182Z,3.43
2022-08-01T16:43:54.393Z,3.43
2022-08-01T16:46:25.453Z,4.23
2022-08-01T16:48:53.008Z,3.43
2022-08-01T16:51:20.001Z,2.73
2022-08-01T16:53:46.510Z,3.63
2022-08-01T16:56:13.030Z,3.10
2022-08-01T16:58:39.561Z,2.83
2022-08-01T17:01:59.080Z,2.67
2022-08-01T17:04:02.030Z,4.20
2022-08-01T17:06:29.882Z,3.23
2022-08-01T17:08:56.436Z,6.30
2022-08-01T17:11:22.996Z,3.83
2022-08-01T17:13:49.625Z,5.60
2022-08-01T17:16:16.139Z,3.17
2022-08-01T17:18:42.700Z,3.77
2022-08-01T17:21:09.364Z,2.80
2022-08-01T17:23:36.108Z,4.40
2022-08-01T17:26:02.896Z,7.60
2022-08-01T17:28:29.513Z,2.40
2022-08-01T17:30:56.186Z,2.50
2022-08-01T17:33:22.673Z,3.00
2022-08-01T17:35:49.264Z,3.73
2022-08-01T17:38:15.808Z,3.43
2022-08-01T17:40:43.684Z,3.20
2022-08-01T17:43:10.269Z,2.13
2022-08-01T17:45:50.256Z,2.10
2022-08-01T17:48:18.883Z,2.70
2022-08-01T17:50:47.016Z,3.87
2022-08-01T17:53:15.056Z,2.23
2022-08-01T17:55:53.684Z,2.40
2022-08-01T17:58:49.197Z,2.63
2022-08-01T18:01:11.522Z,3.50
2022-08-01T18:03:41.302Z,2.83
2022-08-01T18:06:08.921Z,4.40
2022-08-01T18:08:36.045Z,2.30
2022-08-01T18:11:02.694Z,2.30
2022-08-01T18:13:29.881Z,2.77
2022-08-01T18:15:57.066Z,3.00
2022-08-01T18:18:33.139Z,4.70
2022-08-01T18:21:00.394Z,4.07
2022-08-01T18:23:26.976Z,3.93
2022-08-01T18:25:53.928Z,2.70
2022-08-01T18:28:32.805Z,2.57
2022-08-01T18:31:00.871Z,4.27
2022-08-01T18:33:27.863Z,9.60
2022-08-01T18:35:56.112Z,3.20
2022-08-01T18:38:29.286Z,3.30
2022-08-01T18:40:56.161Z,3.70
2022-08-01T18:43:22.739Z,3.60
2022-08-01T18:45:49.289Z,4.80
2022-08-01T18:48:15.891Z,3.07
2022-08-01T18:50:42.567Z,4.13
2022-08-01T18:53:09.189Z,6.93
2022-08-01T18:55:35.911Z,3.27
2022-08-01T18:58:02.502Z,5.90
2022-08-01T19:00:29.075Z,4.23
2022-08-01T19:02:55.701Z,5.53
2022-08-01T19:05:22.367Z,5.53
2022-08-01T19:08:05.337Z,3.33
2022-08-01T19:10:35.078Z,2.93
2022-08-01T19:13:02.318Z,3.40
2022-08-01T19:15:29.605Z,3.13
2022-08-01T19:17:56.398Z,4.20
2022-08-01T19:20:23.177Z,6.43
2022-08-01T19:22:50.047Z,4.37
2022-08-01T19:25:16.719Z,5.70
2022-08-01T19:27:48.413Z,4.33
2022-08-01T19:30:16.230Z,4.97
2022-08-01T19:32:44.947Z,4.03
2022-08-01T19:35:13.586Z,5.10
2022-08-01T19:37:45.626Z,4.17
2022-08-01T19:40:26.809Z,5.20
2022-08-01T19:42:58.938Z,3.30
2022-08-01T19:45:29.467Z,4.47
2022-08-01T19:47:57.531Z,3.77
2022-08-01T19:50:28.682Z,4.97
2022-08-01T19:52:56.210Z,5.03
2022-08-01T19:55:27.289Z,3.77
2022-08-01T20:00:42.631Z,3.37
2022-08-01T20:03:09.989Z,4.20
2022-08-01T20:05:37.290Z,6.80
2022-08-01T20:08:06.559Z,5.23
2022-08-01T20:10:33.427Z,3.30
2022-08-01T20:13:00.552Z,4.70
2022-08-01T20:15:27.477Z,5.50
2022-08-01T20:17:57.741Z,4.27
2022-08-01T20:20:24.635Z,5.23
2022-08-01T20:22:53.732Z,4.90
2022-08-01T20:25:21.397Z,3.53
2022-08-01T20:27:48.091Z,6.07
2022-08-01T20:30:14.674Z,3.87
2022-08-01T20:32:41.846Z,4.80
2022-08-01T20:35:09.362Z,4.27
2022-08-01T20:38:06.840Z,3.87
2022-08-01T20:40:26.961Z,5.47
2022-08-01T20:42:54.284Z,6.27
2022-08-01T20:45:22.662Z,6.37
2022-08-01T20:47:50.670Z,7.30
2022-08-01T20:50:52.889Z,3.00
2022-08-01T20:53:24.747Z,5.77
2022-08-01T20:56:02.027Z,3.80
2022-08-01T20:58:40.930Z,4.00
2022-08-01T21:01:09.464Z,6.60
2022-08-01T21:04:08.530Z,5.67
2022-08-01T21:06:41.835Z,6.00
2022-08-01T21:09:10.496Z,7.07
2022-08-01T21:11:44.814Z,5.20
2022-08-01T21:14:14.363Z,3.50
2022-08-01T21:16:46.736Z,4.30
2022-08-01T21:19:22.095Z,6.33
2022-08-01T21:21:57.625Z,4.30
2022-08-01T21:24:26.926Z,5.67
2022-08-01T21:26:53.580Z,7.40
2022-08-01T21:29:22.374Z,10.60
2022-08-01T21:32:08.859Z,4.30
2022-08-01T21:34:38.256Z,6.90
2022-08-01T21:37:07.803Z,5.90
2022-08-01T21:39:37.889Z,5.10
2022-08-01T21:42:08.968Z,4.83
2022-08-01T21:44:38.752Z,4.43
2022-08-01T21:47:06.459Z,6.47
2022-08-01T21:49:38.803Z,6.77
2022-08-01T21:52:22.562Z,4.73
2022-08-01T21:55:10.629Z,4.03
2022-08-01T21:57:37.576Z,4.23
2022-08-01T22:00:24.916Z,8.33
2022-08-01T22:03:17.989Z,4.70
2022-08-01T22:05:50.882Z,6.07
2022-08-01T22:08:29.061Z,3.93
2022-08-01T22:10:58.895Z,4.67
2022-08-01T22:13:25.607Z,4.00
2022-08-01T22:15:55.971Z,4.50
2022-08-01T22:18:22.822Z,5.80
2022-08-01T22:20:49.431Z,3.93
2022-08-01T22:23:16.579Z,6.40
2022-08-01T22:25:43.963Z,7.80
2022-08-01T22:28:15.723Z,5.00
2022-08-01T22:30:42.943Z,5.77
2022-08-01T22:33:17.170Z,5.07
2022-08-01T22:35:49.908Z,4.53
2022-08-01T22:38:17.984Z,5.60
2022-08-01T22:41:01.595Z,7.57
2022-08-01T22:44:10.145Z,4.93
2022-08-01T22:46:58.123Z,3.83
2022-08-01T22:49:38.545Z,4.33
2022-08-01T22:52:13.041Z,5.07
2022-08-01T22:54:41.558Z,5.43
2022-08-01T22:57:16.652Z,11.20
2022-08-01T22:59:53.695Z,4.70
2022-08-01T23:02:20.844Z,6.37
2022-08-01T23:04:49.487Z,5.47
2022-08-01T23:07:20.996Z,4.83
2022-08-01T23:09:54.361Z,4.37
2022-08-01T23:12:24.454Z,8.00
2022-08-01T23:14:58.482Z,5.07
2022-08-01T23:17:29.269Z,6.37
2022-08-01T23:20:01.954Z,5.90
2022-08-01T23:22:34.578Z,5.23
2022-08-01T23:25:06.696Z,5.73
2022-08-01T23:27:51.540Z,5.47
2022-08-01T23:30:27.027Z,6.30
2022-08-01T23:32:54.276Z,5.80
2022-08-01T23:35:20.978Z,7.37
2022-08-01T23:37:50.841Z,6.73
2022-08-01T23:40:17.953Z,6.70
2022-08-01T23:42:44.581Z,5.57
2022-08-01T23:45:11.569Z,6.60
2022-08-01T23:47:38.214Z,5.87
2022-08-01T23:50:05.361Z,6.23
2022-08-01T23:52:32.437Z,8.80
2022-08-01T23:55:10.154Z,9.40
2022-08-01T23:57:42.059Z,7.30
